Mc Gregor, North Dakota
Current Conditions -  °F | °C
As of 10:55 PM on Thursday 30 Oct 2014 (Local Time) from KD60 Reporting Station
Few Clouds Few Clouds  
Wind Chill:   Ceiling: Unl
Heat Index: 19°   Visibility: 10mi
Dew Point: 19°   Wind: 8mph
Humidity: 100%   Direction: 150°SSE
Pressure: 30.55"   Gusts: NA
Location:  48.5898°N, 102.95°W
Report Text: KD60 310355Z AUTO 15007KT 10SM FEW014 M07/M07 A3055 RMK AO2
Loading
Personal Weather Stations






























Interactive Weather Map
Tropical Storm Tracking
New forecast layout! Learn more

10-Day Weather Forecast

Advertisements
Track Severe Weather on mobile